sensor_id;sensor_type;location;lat;lon;timestamp;P1;durP1;ratioP1;P2;durP2;ratioP2
25153;SDS011;47555;51.038;6.280;2023-07-24T00:00:25;3.13;;;2.55;;
25153;SDS011;47555;51.038;6.280;2023-07-24T00:02:51;3.90;;;2.90;;
25153;SDS011;47555;51.038;6.280;2023-07-24T00:05:18;5.35;;;3.20;;
25153;SDS011;47555;51.038;6.280;2023-07-24T00:07:44;4.63;;;3.00;;
25153;SDS011;47555;51.038;6.280;2023-07-24T00:10:10;5.15;;;3.45;;
25153;SDS011;47555;51.038;6.280;2023-07-24T00:12:36;5.63;;;3.03;;
25153;SDS011;47555;51.038;6.280;2023-07-24T00:15:05;5.47;;;3.17;;
25153;SDS011;47555;51.038;6.280;2023-07-24T00:17:32;5.50;;;3.30;;
25153;SDS011;47555;51.038;6.280;2023-07-24T00:19:58;6.05;;;3.50;;
25153;SDS011;47555;51.038;6.280;2023-07-24T00:22:24;4.40;;;3.35;;
25153;SDS011;47555;51.038;6.280;2023-07-24T00:24:50;4.50;;;3.40;;
25153;SDS011;47555;51.038;6.280;2023-07-24T00:27:16;5.85;;;3.97;;
25153;SDS011;47555;51.038;6.280;2023-07-24T00:29:42;5.57;;;3.50;;
25153;SDS011;47555;51.038;6.280;2023-07-24T00:32:08;5.55;;;3.60;;
25153;SDS011;47555;51.038;6.280;2023-07-24T00:34:34;4.15;;;3.25;;
25153;SDS011;47555;51.038;6.280;2023-07-24T00:37:00;5.03;;;3.40;;
25153;SDS011;47555;51.038;6.280;2023-07-24T00:39:28;4.10;;;3.08;;
25153;SDS011;47555;51.038;6.280;2023-07-24T00:41:54;5.03;;;3.72;;
25153;SDS011;47555;51.038;6.280;2023-07-24T00:44:21;6.72;;;3.47;;
25153;SDS011;47555;51.038;6.280;2023-07-24T00:46:46;7.93;;;3.70;;
25153;SDS011;47555;51.038;6.280;2023-07-24T00:49:13;4.70;;;3.53;;
25153;SDS011;47555;51.038;6.280;2023-07-24T00:51:39;4.25;;;3.20;;
25153;SDS011;47555;51.038;6.280;2023-07-24T00:54:05;4.32;;;3.08;;
25153;SDS011;47555;51.038;6.280;2023-07-24T00:56:31;4.63;;;3.13;;
25153;SDS011;47555;51.038;6.280;2023-07-24T00:58:58;5.82;;;3.70;;
25153;SDS011;47555;51.038;6.280;2023-07-24T01:01:24;4.40;;;3.15;;
25153;SDS011;47555;51.038;6.280;2023-07-24T01:03:51;5.40;;;3.55;;
25153;SDS011;47555;51.038;6.280;2023-07-24T01:06:17;5.32;;;3.38;;
25153;SDS011;47555;51.038;6.280;2023-07-24T01:08:43;4.10;;;3.10;;
25153;SDS011;47555;51.038;6.280;2023-07-24T01:11:19;5.55;;;3.40;;
25153;SDS011;47555;51.038;6.280;2023-07-24T01:13:56;7.32;;;3.70;;
25153;SDS011;47555;51.038;6.280;2023-07-24T01:16:23;5.82;;;3.58;;
25153;SDS011;47555;51.038;6.280;2023-07-24T01:18:51;5.50;;;3.47;;
25153;SDS011;47555;51.038;6.280;2023-07-24T01:21:20;5.80;;;3.53;;
25153;SDS011;47555;51.038;6.280;2023-07-24T01:23:59;6.05;;;3.47;;
25153;SDS011;47555;51.038;6.280;2023-07-24T01:26:28;5.38;;;3.60;;
25153;SDS011;47555;51.038;6.280;2023-07-24T01:28:54;7.03;;;3.55;;
25153;SDS011;47555;51.038;6.280;2023-07-24T01:31:19;7.18;;;3.97;;
25153;SDS011;47555;51.038;6.280;2023-07-24T01:33:46;5.15;;;3.80;;
25153;SDS011;47555;51.038;6.280;2023-07-24T01:36:12;6.07;;;3.53;;
25153;SDS011;47555;51.038;6.280;2023-07-24T01:38:39;6.55;;;3.45;;
25153;SDS011;47555;51.038;6.280;2023-07-24T01:41:05;5.68;;;4.03;;
25153;SDS011;47555;51.038;6.280;2023-07-24T01:43:31;6.38;;;3.80;;
25153;SDS011;47555;51.038;6.280;2023-07-24T01:45:57;7.50;;;4.35;;
25153;SDS011;47555;51.038;6.280;2023-07-24T01:48:23;6.80;;;3.75;;
25153;SDS011;47555;51.038;6.280;2023-07-24T01:50:49;7.50;;;3.80;;
25153;SDS011;47555;51.038;6.280;2023-07-24T01:53:15;7.13;;;3.47;;
25153;SDS011;47555;51.038;6.280;2023-07-24T01:55:41;8.15;;;4.43;;
25153;SDS011;47555;51.038;6.280;2023-07-24T01:58:07;7.80;;;4.22;;
25153;SDS011;47555;51.038;6.280;2023-07-24T02:00:33;8.18;;;3.90;;
25153;SDS011;47555;51.038;6.280;2023-07-24T02:02:59;6.13;;;3.58;;
25153;SDS011;47555;51.038;6.280;2023-07-24T02:05:25;6.15;;;3.58;;
25153;SDS011;47555;51.038;6.280;2023-07-24T02:07:51;10.52;;;4.47;;
25153;SDS011;47555;51.038;6.280;2023-07-24T02:10:17;5.88;;;3.25;;
25153;SDS011;47555;51.038;6.280;2023-07-24T02:12:43;8.15;;;4.30;;
25153;SDS011;47555;51.038;6.280;2023-07-24T02:15:09;7.68;;;3.60;;
25153;SDS011;47555;51.038;6.280;2023-07-24T02:17:35;6.22;;;4.03;;
25153;SDS011;47555;51.038;6.280;2023-07-24T02:20:02;6.22;;;3.60;;
25153;SDS011;47555;51.038;6.280;2023-07-24T02:22:28;7.53;;;4.28;;
25153;SDS011;47555;51.038;6.280;2023-07-24T02:24:54;6.97;;;4.38;;
25153;SDS011;47555;51.038;6.280;2023-07-24T02:27:26;8.27;;;4.35;;
25153;SDS011;47555;51.038;6.280;2023-07-24T02:29:55;5.78;;;3.92;;
25153;SDS011;47555;51.038;6.280;2023-07-24T02:32:21;9.88;;;4.38;;
25153;SDS011;47555;51.038;6.280;2023-07-24T02:34:51;8.55;;;3.63;;
25153;SDS011;47555;51.038;6.280;2023-07-24T02:37:17;8.98;;;4.95;;
25153;SDS011;47555;51.038;6.280;2023-07-24T02:39:43;8.73;;;4.45;;
25153;SDS011;47555;51.038;6.280;2023-07-24T02:42:09;6.40;;;3.85;;
25153;SDS011;47555;51.038;6.280;2023-07-24T02:44:38;6.95;;;4.22;;
25153;SDS011;47555;51.038;6.280;2023-07-24T02:47:04;10.75;;;4.05;;
25153;SDS011;47555;51.038;6.280;2023-07-24T02:49:30;7.22;;;3.90;;
25153;SDS011;47555;51.038;6.280;2023-07-24T02:51:56;8.30;;;4.45;;
25153;SDS011;47555;51.038;6.280;2023-07-24T02:54:22;11.73;;;4.10;;
25153;SDS011;47555;51.038;6.280;2023-07-24T02:56:49;6.60;;;4.20;;
25153;SDS011;47555;51.038;6.280;2023-07-24T02:59:14;6.63;;;3.95;;
25153;SDS011;47555;51.038;6.280;2023-07-24T03:01:40;6.68;;;3.83;;
25153;SDS011;47555;51.038;6.280;2023-07-24T03:04:06;9.73;;;4.53;;
25153;SDS011;47555;51.038;6.280;2023-07-24T03:06:33;6.22;;;4.20;;
25153;SDS011;47555;51.038;6.280;2023-07-24T03:08:59;9.55;;;4.63;;
25153;SDS011;47555;51.038;6.280;2023-07-24T03:11:25;6.88;;;4.10;;
25153;SDS011;47555;51.038;6.280;2023-07-24T03:13:51;8.20;;;4.45;;
25153;SDS011;47555;51.038;6.280;2023-07-24T03:16:17;7.13;;;4.40;;
25153;SDS011;47555;51.038;6.280;2023-07-24T03:18:45;8.68;;;4.40;;
25153;SDS011;47555;51.038;6.280;2023-07-24T03:21:11;7.18;;;4.63;;
25153;SDS011;47555;51.038;6.280;2023-07-24T03:23:37;9.60;;;4.80;;
25153;SDS011;47555;51.038;6.280;2023-07-24T03:26:03;11.40;;;4.13;;
25153;SDS011;47555;51.038;6.280;2023-07-24T03:28:29;9.93;;;4.78;;
25153;SDS011;47555;51.038;6.280;2023-07-24T03:30:55;9.25;;;4.20;;
25153;SDS011;47555;51.038;6.280;2023-07-24T03:33:21;10.75;;;5.25;;
25153;SDS011;47555;51.038;6.280;2023-07-24T03:35:47;8.63;;;4.32;;
25153;SDS011;47555;51.038;6.280;2023-07-24T03:38:13;7.07;;;4.15;;
25153;SDS011;47555;51.038;6.280;2023-07-24T03:40:39;7.45;;;3.83;;
25153;SDS011;47555;51.038;6.280;2023-07-24T03:43:05;6.70;;;3.70;;
25153;SDS011;47555;51.038;6.280;2023-07-24T03:45:31;9.10;;;4.45;;
25153;SDS011;47555;51.038;6.280;2023-07-24T03:47:57;9.15;;;4.53;;
25153;SDS011;47555;51.038;6.280;2023-07-24T03:50:23;9.45;;;4.45;;
25153;SDS011;47555;51.038;6.280;2023-07-24T03:52:49;8.25;;;4.43;;
25153;SDS011;47555;51.038;6.280;2023-07-24T03:55:15;9.55;;;4.70;;
25153;SDS011;47555;51.038;6.280;2023-07-24T03:57:41;7.40;;;3.88;;
25153;SDS011;47555;51.038;6.280;2023-07-24T04:00:07;8.00;;;4.88;;
25153;SDS011;47555;51.038;6.280;2023-07-24T04:02:33;8.35;;;4.70;;
25153;SDS011;47555;51.038;6.280;2023-07-24T04:04:59;8.02;;;4.47;;
25153;SDS011;47555;51.038;6.280;2023-07-24T04:07:25;7.13;;;4.07;;
25153;SDS011;47555;51.038;6.280;2023-07-24T04:09:51;7.30;;;4.25;;
25153;SDS011;47555;51.038;6.280;2023-07-24T04:12:17;6.88;;;4.47;;
25153;SDS011;47555;51.038;6.280;2023-07-24T04:14:43;7.50;;;4.50;;
25153;SDS011;47555;51.038;6.280;2023-07-24T04:17:09;8.75;;;4.55;;
25153;SDS011;47555;51.038;6.280;2023-07-24T04:19:35;8.30;;;4.50;;
25153;SDS011;47555;51.038;6.280;2023-07-24T04:22:01;7.25;;;4.30;;
25153;SDS011;47555;51.038;6.280;2023-07-24T04:24:27;8.52;;;4.53;;
25153;SDS011;47555;51.038;6.280;2023-07-24T04:26:52;8.73;;;4.90;;
25153;SDS011;47555;51.038;6.280;2023-07-24T04:29:19;6.72;;;3.90;;
25153;SDS011;47555;51.038;6.280;2023-07-24T04:31:48;6.95;;;4.28;;
25153;SDS011;47555;51.038;6.280;2023-07-24T04:34:15;8.15;;;4.40;;
25153;SDS011;47555;51.038;6.280;2023-07-24T04:36:41;7.88;;;4.32;;
25153;SDS011;47555;51.038;6.280;2023-07-24T04:39:07;6.53;;;4.15;;
25153;SDS011;47555;51.038;6.280;2023-07-24T04:41:33;8.20;;;4.78;;
25153;SDS011;47555;51.038;6.280;2023-07-24T04:43:59;6.43;;;4.03;;
25153;SDS011;47555;51.038;6.280;2023-07-24T04:46:24;12.25;;;5.30;;
25153;SDS011;47555;51.038;6.280;2023-07-24T04:48:50;8.73;;;4.68;;
25153;SDS011;47555;51.038;6.280;2023-07-24T04:51:16;8.18;;;4.65;;
25153;SDS011;47555;51.038;6.280;2023-07-24T04:53:43;9.60;;;4.97;;
25153;SDS011;47555;51.038;6.280;2023-07-24T04:56:09;7.20;;;4.38;;
25153;SDS011;47555;51.038;6.280;2023-07-24T04:58:35;7.95;;;4.40;;
25153;SDS011;47555;51.038;6.280;2023-07-24T05:01:03;9.60;;;4.78;;
25153;SDS011;47555;51.038;6.280;2023-07-24T05:03:29;7.80;;;4.45;;
25153;SDS011;47555;51.038;6.280;2023-07-24T05:05:55;11.15;;;4.38;;
25153;SDS011;47555;51.038;6.280;2023-07-24T05:08:22;7.05;;;4.18;;
25153;SDS011;47555;51.038;6.280;2023-07-24T05:10:57;8.18;;;4.68;;
25153;SDS011;47555;51.038;6.280;2023-07-24T05:13:24;8.02;;;4.40;;
25153;SDS011;47555;51.038;6.280;2023-07-24T05:15:49;11.73;;;4.70;;
25153;SDS011;47555;51.038;6.280;2023-07-24T05:18:15;7.68;;;4.72;;
25153;SDS011;47555;51.038;6.280;2023-07-24T05:20:45;7.70;;;4.40;;
25153;SDS011;47555;51.038;6.280;2023-07-24T05:23:12;9.48;;;4.50;;
25153;SDS011;47555;51.038;6.280;2023-07-24T05:25:38;8.25;;;4.50;;
25153;SDS011;47555;51.038;6.280;2023-07-24T05:28:04;8.82;;;4.93;;
25153;SDS011;47555;51.038;6.280;2023-07-24T05:30:30;8.13;;;4.32;;
25153;SDS011;47555;51.038;6.280;2023-07-24T05:32:56;10.68;;;4.80;;
25153;SDS011;47555;51.038;6.280;2023-07-24T05:35:22;6.75;;;3.92;;
25153;SDS011;47555;51.038;6.280;2023-07-24T05:37:48;8.93;;;4.05;;
25153;SDS011;47555;51.038;6.280;2023-07-24T05:40:14;6.85;;;3.80;;
25153;SDS011;47555;51.038;6.280;2023-07-24T05:42:40;6.40;;;3.75;;
25153;SDS011;47555;51.038;6.280;2023-07-24T05:45:09;9.25;;;3.88;;
25153;SDS011;47555;51.038;6.280;2023-07-24T05:47:39;5.32;;;3.75;;
25153;SDS011;47555;51.038;6.280;2023-07-24T05:50:05;5.63;;;3.45;;
25153;SDS011;47555;51.038;6.280;2023-07-24T05:52:31;7.20;;;3.97;;
25153;SDS011;47555;51.038;6.280;2023-07-24T05:54:57;8.35;;;3.92;;
25153;SDS011;47555;51.038;6.280;2023-07-24T05:57:23;5.95;;;3.90;;
25153;SDS011;47555;51.038;6.280;2023-07-24T05:59:49;5.40;;;3.60;;
25153;SDS011;47555;51.038;6.280;2023-07-24T06:02:16;8.05;;;3.42;;
25153;SDS011;47555;51.038;6.280;2023-07-24T06:04:42;7.50;;;3.40;;
25153;SDS011;47555;51.038;6.280;2023-07-24T06:07:08;4.60;;;3.35;;
25153;SDS011;47555;51.038;6.280;2023-07-24T06:09:34;6.03;;;3.13;;
25153;SDS011;47555;51.038;6.280;2023-07-24T06:12:00;5.80;;;3.15;;
25153;SDS011;47555;51.038;6.280;2023-07-24T06:14:26;5.05;;;2.97;;
25153;SDS011;47555;51.038;6.280;2023-07-24T06:16:52;5.63;;;3.05;;
25153;SDS011;47555;51.038;6.280;2023-07-24T06:19:18;6.55;;;2.78;;
25153;SDS011;47555;51.038;6.280;2023-07-24T06:21:44;5.15;;;3.10;;
25153;SDS011;47555;51.038;6.280;2023-07-24T06:24:10;6.75;;;3.38;;
25153;SDS011;47555;51.038;6.280;2023-07-24T06:26:37;6.00;;;3.60;;
25153;SDS011;47555;51.038;6.280;2023-07-24T06:29:03;6.85;;;2.85;;
25153;SDS011;47555;51.038;6.280;2023-07-24T06:31:29;4.57;;;2.85;;
25153;SDS011;47555;51.038;6.280;2023-07-24T06:33:55;5.32;;;2.90;;
25153;SDS011;47555;51.038;6.280;2023-07-24T06:36:21;3.88;;;2.92;;
25153;SDS011;47555;51.038;6.280;2023-07-24T06:38:47;6.18;;;3.20;;
25153;SDS011;47555;51.038;6.280;2023-07-24T06:41:16;5.63;;;2.88;;
25153;SDS011;47555;51.038;6.280;2023-07-24T06:43:45;6.07;;;3.17;;
25153;SDS011;47555;51.038;6.280;2023-07-24T06:46:11;5.57;;;2.60;;
25153;SDS011;47555;51.038;6.280;2023-07-24T06:48:36;4.85;;;2.85;;
25153;SDS011;47555;51.038;6.280;2023-07-24T06:51:02;4.40;;;2.55;;
25153;SDS011;47555;51.038;6.280;2023-07-24T06:53:28;3.70;;;2.50;;
25153;SDS011;47555;51.038;6.280;2023-07-24T06:55:54;6.00;;;2.97;;
25153;SDS011;47555;51.038;6.280;2023-07-24T06:58:20;7.32;;;2.70;;
25153;SDS011;47555;51.038;6.280;2023-07-24T07:00:46;4.78;;;2.78;;
25153;SDS011;47555;51.038;6.280;2023-07-24T07:03:12;4.03;;;2.75;;
25153;SDS011;47555;51.038;6.280;2023-07-24T07:05:38;5.05;;;3.00;;
25153;SDS011;47555;51.038;6.280;2023-07-24T07:08:04;4.35;;;2.55;;
25153;SDS011;47555;51.038;6.280;2023-07-24T07:10:30;4.22;;;2.95;;
25153;SDS011;47555;51.038;6.280;2023-07-24T07:12:57;8.45;;;3.08;;
25153;SDS011;47555;51.038;6.280;2023-07-24T07:15:23;6.93;;;3.17;;
25153;SDS011;47555;51.038;6.280;2023-07-24T07:17:48;4.68;;;2.97;;
25153;SDS011;47555;51.038;6.280;2023-07-24T07:20:14;3.60;;;2.72;;
25153;SDS011;47555;51.038;6.280;2023-07-24T07:22:41;4.38;;;2.45;;
25153;SDS011;47555;51.038;6.280;2023-07-24T07:25:07;4.78;;;3.08;;
25153;SDS011;47555;51.038;6.280;2023-07-24T07:27:33;6.50;;;2.92;;
25153;SDS011;47555;51.038;6.280;2023-07-24T07:29:59;4.75;;;3.30;;
25153;SDS011;47555;51.038;6.280;2023-07-24T07:32:24;4.97;;;2.83;;
25153;SDS011;47555;51.038;6.280;2023-07-24T07:34:51;4.35;;;2.75;;
25153;SDS011;47555;51.038;6.280;2023-07-24T07:37:17;4.32;;;3.25;;
25153;SDS011;47555;51.038;6.280;2023-07-24T07:39:43;4.97;;;2.88;;
25153;SDS011;47555;51.038;6.280;2023-07-24T07:42:09;4.50;;;3.08;;
25153;SDS011;47555;51.038;6.280;2023-07-24T07:44:35;5.07;;;2.67;;
25153;SDS011;47555;51.038;6.280;2023-07-24T07:47:04;4.93;;;3.10;;
25153;SDS011;47555;51.038;6.280;2023-07-24T07:51:59;4.40;;;2.70;;
25153;SDS011;47555;51.038;6.280;2023-07-24T07:54:25;4.18;;;2.88;;
25153;SDS011;47555;51.038;6.280;2023-07-24T07:56:51;4.75;;;2.80;;
25153;SDS011;47555;51.038;6.280;2023-07-24T07:59:17;4.43;;;2.88;;
25153;SDS011;47555;51.038;6.280;2023-07-24T08:01:43;3.97;;;2.97;;
25153;SDS011;47555;51.038;6.280;2023-07-24T08:04:11;4.95;;;2.80;;
25153;SDS011;47555;51.038;6.280;2023-07-24T08:06:37;4.68;;;2.97;;
25153;SDS011;47555;51.038;6.280;2023-07-24T08:09:02;4.50;;;2.63;;
25153;SDS011;47555;51.038;6.280;2023-07-24T08:11:28;3.75;;;2.88;;
25153;SDS011;47555;51.038;6.280;2023-07-24T08:13:54;4.80;;;2.65;;
25153;SDS011;47555;51.038;6.280;2023-07-24T08:16:20;5.97;;;3.22;;
25153;SDS011;47555;51.038;6.280;2023-07-24T08:18:46;4.93;;;2.97;;
25153;SDS011;47555;51.038;6.280;2023-07-24T08:21:13;4.68;;;3.08;;
25153;SDS011;47555;51.038;6.280;2023-07-24T08:23:39;3.75;;;2.47;;
25153;SDS011;47555;51.038;6.280;2023-07-24T08:26:05;3.80;;;2.90;;
25153;SDS011;47555;51.038;6.280;2023-07-24T08:28:32;6.05;;;3.15;;
25153;SDS011;47555;51.038;6.280;2023-07-24T08:30:59;4.30;;;2.70;;
25153;SDS011;47555;51.038;6.280;2023-07-24T08:33:27;3.45;;;2.70;;
25153;SDS011;47555;51.038;6.280;2023-07-24T08:35:59;4.40;;;2.70;;
25153;SDS011;47555;51.038;6.280;2023-07-24T08:38:26;4.75;;;2.80;;
25153;SDS011;47555;51.038;6.280;2023-07-24T08:41:08;6.82;;;3.25;;
25153;SDS011;47555;51.038;6.280;2023-07-24T08:43:35;4.72;;;3.10;;
25153;SDS011;47555;51.038;6.280;2023-07-24T08:46:01;4.93;;;3.25;;
25153;SDS011;47555;51.038;6.280;2023-07-24T08:48:31;6.75;;;3.30;;
25153;SDS011;47555;51.038;6.280;2023-07-24T08:51:07;6.80;;;3.22;;
25153;SDS011;47555;51.038;6.280;2023-07-24T08:53:34;5.20;;;3.13;;
25153;SDS011;47555;51.038;6.280;2023-07-24T08:56:04;4.93;;;2.67;;
25153;SDS011;47555;51.038;6.280;2023-07-24T08:58:30;4.05;;;2.80;;
25153;SDS011;47555;51.038;6.280;2023-07-24T09:00:56;6.78;;;2.88;;
25153;SDS011;47555;51.038;6.280;2023-07-24T09:03:23;6.03;;;2.63;;
25153;SDS011;47555;51.038;6.280;2023-07-24T09:05:49;4.70;;;2.97;;
25153;SDS011;47555;51.038;6.280;2023-07-24T09:08:14;5.03;;;2.75;;
25153;SDS011;47555;51.038;6.280;2023-07-24T09:10:41;4.25;;;2.50;;
25153;SDS011;47555;51.038;6.280;2023-07-24T09:13:07;5.70;;;2.92;;
25153;SDS011;47555;51.038;6.280;2023-07-24T09:15:40;4.70;;;2.72;;
25153;SDS011;47555;51.038;6.280;2023-07-24T09:18:06;3.95;;;2.67;;
25153;SDS011;47555;51.038;6.280;2023-07-24T09:20:37;6.70;;;2.70;;
25153;SDS011;47555;51.038;6.280;2023-07-24T09:23:04;5.20;;;2.63;;
25153;SDS011;47555;51.038;6.280;2023-07-24T09:25:30;5.20;;;2.83;;
25153;SDS011;47555;51.038;6.280;2023-07-24T09:27:59;3.83;;;2.58;;
25153;SDS011;47555;51.038;6.280;2023-07-24T09:30:26;3.58;;;2.65;;
25153;SDS011;47555;51.038;6.280;2023-07-24T09:32:52;3.60;;;2.38;;
25153;SDS011;47555;51.038;6.280;2023-07-24T09:35:19;3.35;;;2.47;;
25153;SDS011;47555;51.038;6.280;2023-07-24T09:37:45;4.70;;;2.58;;
25153;SDS011;47555;51.038;6.280;2023-07-24T09:40:12;4.57;;;3.17;;
25153;SDS011;47555;51.038;6.280;2023-07-24T09:42:39;5.05;;;2.92;;
25153;SDS011;47555;51.038;6.280;2023-07-24T09:45:05;4.68;;;2.45;;
25153;SDS011;47555;51.038;6.280;2023-07-24T09:47:33;5.90;;;2.72;;
25153;SDS011;47555;51.038;6.280;2023-07-24T09:50:00;4.80;;;2.65;;
25153;SDS011;47555;51.038;6.280;2023-07-24T09:52:29;3.53;;;2.50;;
25153;SDS011;47555;51.038;6.280;2023-07-24T09:54:58;3.38;;;2.22;;
25153;SDS011;47555;51.038;6.280;2023-07-24T09:57:25;3.60;;;2.20;;
25153;SDS011;47555;51.038;6.280;2023-07-24T09:59:52;2.47;;;1.88;;
25153;SDS011;47555;51.038;6.280;2023-07-24T10:02:18;3.10;;;1.80;;
25153;SDS011;47555;51.038;6.280;2023-07-24T10:04:45;2.90;;;2.15;;
25153;SDS011;47555;51.038;6.280;2023-07-24T10:07:11;2.20;;;1.90;;
25153;SDS011;47555;51.038;6.280;2023-07-24T10:09:37;2.58;;;1.90;;
25153;SDS011;47555;51.038;6.280;2023-07-24T10:12:04;3.30;;;1.92;;
25153;SDS011;47555;51.038;6.280;2023-07-24T10:14:30;4.70;;;1.88;;
25153;SDS011;47555;51.038;6.280;2023-07-24T10:16:56;2.72;;;2.25;;
25153;SDS011;47555;51.038;6.280;2023-07-24T10:19:22;3.65;;;2.28;;
25153;SDS011;47555;51.038;6.280;2023-07-24T10:21:48;3.33;;;2.15;;
25153;SDS011;47555;51.038;6.280;2023-07-24T10:24:15;2.70;;;2.13;;
25153;SDS011;47555;51.038;6.280;2023-07-24T10:26:41;4.05;;;2.40;;
25153;SDS011;47555;51.038;6.280;2023-07-24T10:29:08;2.88;;;2.22;;
25153;SDS011;47555;51.038;6.280;2023-07-24T10:31:34;3.97;;;2.40;;
25153;SDS011;47555;51.038;6.280;2023-07-24T10:34:06;3.28;;;2.40;;
25153;SDS011;47555;51.038;6.280;2023-07-24T10:36:36;3.38;;;2.13;;
25153;SDS011;47555;51.038;6.280;2023-07-24T10:39:12;3.22;;;2.38;;
25153;SDS011;47555;51.038;6.280;2023-07-24T10:41:38;5.03;;;2.60;;
25153;SDS011;47555;51.038;6.280;2023-07-24T10:44:05;2.70;;;2.15;;
25153;SDS011;47555;51.038;6.280;2023-07-24T10:49:03;2.85;;;2.20;;
25153;SDS011;47555;51.038;6.280;2023-07-24T10:51:29;3.00;;;2.40;;
25153;SDS011;47555;51.038;6.280;2023-07-24T10:53:58;4.75;;;2.75;;
25153;SDS011;47555;51.038;6.280;2023-07-24T10:56:24;4.22;;;2.58;;
25153;SDS011;47555;51.038;6.280;2023-07-24T10:58:50;3.88;;;2.50;;
25153;SDS011;47555;51.038;6.280;2023-07-24T11:01:17;4.78;;;2.40;;
25153;SDS011;47555;51.038;6.280;2023-07-24T11:03:44;4.65;;;2.60;;
25153;SDS011;47555;51.038;6.280;2023-07-24T11:06:17;4.32;;;2.80;;
25153;SDS011;47555;51.038;6.280;2023-07-24T11:11:21;7.15;;;2.80;;
25153;SDS011;47555;51.038;6.280;2023-07-24T11:13:47;4.10;;;2.60;;
25153;SDS011;47555;51.038;6.280;2023-07-24T11:16:13;4.13;;;2.50;;
25153;SDS011;47555;51.038;6.280;2023-07-24T11:18:46;5.80;;;2.45;;
25153;SDS011;47555;51.038;6.280;2023-07-24T11:21:12;2.83;;;1.83;;
25153;SDS011;47555;51.038;6.280;2023-07-24T11:23:45;4.63;;;2.33;;
25153;SDS011;47555;51.038;6.280;2023-07-24T11:26:14;3.55;;;2.15;;
25153;SDS011;47555;51.038;6.280;2023-07-24T11:28:41;5.38;;;2.40;;
25153;SDS011;47555;51.038;6.280;2023-07-24T11:31:07;7.20;;;2.75;;
25153;SDS011;47555;51.038;6.280;2023-07-24T11:33:33;3.13;;;2.28;;
25153;SDS011;47555;51.038;6.280;2023-07-24T11:36:02;4.53;;;2.00;;
25153;SDS011;47555;51.038;6.280;2023-07-24T11:38:28;2.08;;;1.58;;
25153;SDS011;47555;51.038;6.280;2023-07-24T11:40:54;2.70;;;1.40;;
25153;SDS011;47555;51.038;6.280;2023-07-24T11:43:22;1.75;;;1.40;;
25153;SDS011;47555;51.038;6.280;2023-07-24T11:45:48;2.10;;;1.20;;
25153;SDS011;47555;51.038;6.280;2023-07-24T11:48:17;1.52;;;1.20;;
25153;SDS011;47555;51.038;6.280;2023-07-24T11:50:44;1.60;;;1.20;;
25153;SDS011;47555;51.038;6.280;2023-07-24T11:53:26;1.83;;;1.30;;
25153;SDS011;47555;51.038;6.280;2023-07-24T11:55:53;2.10;;;1.27;;
25153;SDS011;47555;51.038;6.280;2023-07-24T11:58:20;2.83;;;1.50;;
25153;SDS011;47555;51.038;6.280;2023-07-24T12:00:46;1.92;;;1.40;;
25153;SDS011;47555;51.038;6.280;2023-07-24T12:03:13;1.80;;;1.20;;
25153;SDS011;47555;51.038;6.280;2023-07-24T12:05:42;1.75;;;1.38;;
25153;SDS011;47555;51.038;6.280;2023-07-24T12:08:08;2.13;;;1.40;;
25153;SDS011;47555;51.038;6.280;2023-07-24T12:10:38;1.58;;;1.10;;
25153;SDS011;47555;51.038;6.280;2023-07-24T12:13:04;1.00;;;0.90;;
25153;SDS011;47555;51.038;6.280;2023-07-24T12:15:31;1.13;;;0.65;;
25153;SDS011;47555;51.038;6.280;2023-07-24T12:17:58;1.23;;;0.80;;
25153;SDS011;47555;51.038;6.280;2023-07-24T12:20:28;2.67;;;0.70;;
25153;SDS011;47555;51.038;6.280;2023-07-24T12:22:54;1.05;;;0.80;;
25153;SDS011;47555;51.038;6.280;2023-07-24T12:25:20;0.82;;;0.60;;
25153;SDS011;47555;51.038;6.280;2023-07-24T12:27:46;2.45;;;0.80;;
25153;SDS011;47555;51.038;6.280;2023-07-24T12:30:13;0.85;;;0.77;;
25153;SDS011;47555;51.038;6.280;2023-07-24T12:32:39;0.77;;;0.65;;
25153;SDS011;47555;51.038;6.280;2023-07-24T12:35:05;1.30;;;1.00;;
25153;SDS011;47555;51.038;6.280;2023-07-24T12:37:31;2.08;;;1.00;;
25153;SDS011;47555;51.038;6.280;2023-07-24T12:39:57;1.80;;;1.13;;
25153;SDS011;47555;51.038;6.280;2023-07-24T12:42:23;1.15;;;0.85;;
25153;SDS011;47555;51.038;6.280;2023-07-24T12:44:49;1.73;;;1.10;;
25153;SDS011;47555;51.038;6.280;2023-07-24T12:47:15;1.45;;;1.00;;
25153;SDS011;47555;51.038;6.280;2023-07-24T12:49:41;1.52;;;1.10;;
25153;SDS011;47555;51.038;6.280;2023-07-24T12:52:07;1.83;;;1.15;;
25153;SDS011;47555;51.038;6.280;2023-07-24T12:54:33;1.40;;;0.98;;
25153;SDS011;47555;51.038;6.280;2023-07-24T12:56:59;2.20;;;1.10;;
25153;SDS011;47555;51.038;6.280;2023-07-24T12:59:26;1.23;;;1.08;;
25153;SDS011;47555;51.038;6.280;2023-07-24T13:01:51;1.55;;;1.10;;
25153;SDS011;47555;51.038;6.280;2023-07-24T13:04:18;1.98;;;1.00;;
25153;SDS011;47555;51.038;6.280;2023-07-24T13:06:44;1.45;;;1.02;;
25153;SDS011;47555;51.038;6.280;2023-07-24T13:09:10;2.30;;;1.40;;
25153;SDS011;47555;51.038;6.280;2023-07-24T13:11:36;2.00;;;1.30;;
25153;SDS011;47555;51.038;6.280;2023-07-24T13:14:02;1.83;;;1.23;;
25153;SDS011;47555;51.038;6.280;2023-07-24T13:16:28;4.07;;;1.30;;
25153;SDS011;47555;51.038;6.280;2023-07-24T13:18:54;1.65;;;1.10;;
25153;SDS011;47555;51.038;6.280;2023-07-24T13:21:20;1.17;;;1.00;;
25153;SDS011;47555;51.038;6.280;2023-07-24T13:23:46;2.13;;;1.33;;
25153;SDS011;47555;51.038;6.280;2023-07-24T13:26:12;1.08;;;1.00;;
25153;SDS011;47555;51.038;6.280;2023-07-24T13:28:39;1.48;;;1.20;;
25153;SDS011;47555;51.038;6.280;2023-07-24T13:31:15;1.52;;;1.15;;
25153;SDS011;47555;51.038;6.280;2023-07-24T13:33:41;1.73;;;1.30;;
25153;SDS011;47555;51.038;6.280;2023-07-24T13:36:07;3.75;;;1.27;;
25153;SDS011;47555;51.038;6.280;2023-07-24T13:38:33;2.85;;;1.52;;
25153;SDS011;47555;51.038;6.280;2023-07-24T13:40:59;1.75;;;1.15;;
25153;SDS011;47555;51.038;6.280;2023-07-24T13:43:26;1.75;;;1.30;;
25153;SDS011;47555;51.038;6.280;2023-07-24T13:45:52;2.35;;;1.50;;
25153;SDS011;47555;51.038;6.280;2023-07-24T13:48:18;1.83;;;1.48;;
25153;SDS011;47555;51.038;6.280;2023-07-24T13:50:44;2.78;;;1.80;;
25153;SDS011;47555;51.038;6.280;2023-07-24T13:53:10;1.85;;;1.50;;
25153;SDS011;47555;51.038;6.280;2023-07-24T13:55:37;2.03;;;1.55;;
25153;SDS011;47555;51.038;6.280;2023-07-24T13:58:03;2.58;;;1.50;;
25153;SDS011;47555;51.038;6.280;2023-07-24T14:00:29;2.35;;;1.65;;
25153;SDS011;47555;51.038;6.280;2023-07-24T14:02:54;2.08;;;1.77;;
25153;SDS011;47555;51.038;6.280;2023-07-24T14:05:20;2.05;;;1.40;;
25153;SDS011;47555;51.038;6.280;2023-07-24T14:07:49;2.25;;;1.48;;
25153;SDS011;47555;51.038;6.280;2023-07-24T14:10:15;4.93;;;2.55;;
25153;SDS011;47555;51.038;6.280;2023-07-24T14:12:41;4.28;;;2.17;;
25153;SDS011;47555;51.038;6.280;2023-07-24T14:15:07;3.65;;;1.70;;
25153;SDS011;47555;51.038;6.280;2023-07-24T14:17:33;2.00;;;1.67;;
25153;SDS011;47555;51.038;6.280;2023-07-24T14:20:02;3.63;;;2.08;;
25153;SDS011;47555;51.038;6.280;2023-07-24T14:22:28;5.00;;;2.38;;
25153;SDS011;47555;51.038;6.280;2023-07-24T14:24:54;3.95;;;2.17;;
25153;SDS011;47555;51.038;6.280;2023-07-24T14:27:20;2.97;;;1.90;;
25153;SDS011;47555;51.038;6.280;2023-07-24T14:29:46;3.78;;;2.08;;
25153;SDS011;47555;51.038;6.280;2023-07-24T14:32:12;2.60;;;1.65;;
25153;SDS011;47555;51.038;6.280;2023-07-24T14:34:40;2.53;;;1.67;;
25153;SDS011;47555;51.038;6.280;2023-07-24T14:37:06;2.80;;;2.15;;
25153;SDS011;47555;51.038;6.280;2023-07-24T14:39:32;2.03;;;1.52;;
25153;SDS011;47555;51.038;6.280;2023-07-24T14:41:58;2.25;;;1.85;;
25153;SDS011;47555;51.038;6.280;2023-07-24T14:44:24;2.40;;;1.70;;
25153;SDS011;47555;51.038;6.280;2023-07-24T14:46:50;1.80;;;1.58;;
25153;SDS011;47555;51.038;6.280;2023-07-24T14:49:16;3.47;;;1.77;;
25153;SDS011;47555;51.038;6.280;2023-07-24T14:51:42;1.95;;;1.75;;